Corolla, NC (27927)

3:34 AM EST on March 04, 2015 (GMT -0500)
Ocean Sands | Change Station
CLOSE
Current Station
Personal Weather Station
Location: Corolla, NC
Elevation: 90 ft
Nearby Weather Stations

Elev 90 ft 36.32 °N, 75.81 °W | Updated 7 seconds ago

Overcast
Overcast
52.8 °F
Feels Like 52.8 °F
N
7.0
Wind Variable Wind from WSW
Gusts 16.0 mph

Today
High -- | Low -- °F
--% Chance of Precip.
Yesterday
High -- | Low -- °F
Precip. -- in
6:29 AM 6:00 PM
Waxing Gibbous, 98% visible
Pressure 29.99 in
Visibility 1.2 miles
Clouds Overcast 200 ft
Dew Point 52 °F
Humidity 98%
Rainfall 0.00 in
Snow Depth Not available.
UV 0 out of 12
Pollen 7.00 out of 12
Air Quality Not available.
Flu Activity Not available.
METAR KONX 040815Z AUTO 22010KT 1 1/4SM BR OVC002 09/09 A2999 RMK AO2 T00920085

More Conditions Fewer Conditions

Pressure 29.99 in
Visibility 1.2 miles
Clouds Overcast 200 ft
Dew Point 52 °F
Humidity 98%
Rainfall 0.00 in
Snow Depth Not available.
UV 0 out of 12
Pollen 7.00 out of 12
Air Quality Not available.
Flu Activity Not available.
METAR KONX 040815Z AUTO 22010KT 1 1/4SM BR OVC002 09/09 A2999 RMK AO2 T00920085

More Conditions Fewer Conditions

10-Day Weather Forecast

Almanac

Astronomy

Mar. 04, 2015 Rise Set
Actual Time
Civil Twilight
Nautical Twilight
Astronomical Twilight
Moon
Length of Visible Light
Length of Day
Tomorrow will be .
, % of the Moon is Illuminated

Today's Extremes

State Highs State Lows

Community

WunderPhotos

Upload Photos

1,802,416 photos uploaded!

WunderBlogs® & News

Nearby

Air Quality

  Air Quality AQ Index Pollutant
Not available.

Snow Depth

Station Depth Elevation

Earthquake Activity

City Distance Mag. Time & Date
Minimum magnitude displayed is 2.5.

Coastal Water Temperatures

Place Temperature

Nearby Weather Stations